Portada
METAR-TAF:

METAR-TAF

Aeroports :

Gran Canària, Espanya

Aeroport de Gran Canària

latitud: 27-56N, longitud: 015-23W, altitud: 23 m

Observació

L'informe es va fer fa 11 minuts, a les 20:00 UTC
Vent 14 kt del Nord
Temperatura 18°C
Humitat 59%
Pressió 1017 hPa
Visibilitat 10 km o més
Escasses núvols a una alçada de 4000 ft

METAR: GCLP 202000Z 35014KT 9999 FEW040 18/10 Q1017 NOSIG

Hora: 21:11 (20:11 UTC)

Pronòstic

L'informe es va fer fa 6 hores i 11 minuts, a les 14:00 UTC
Pronòstic vàlid del 20 a les 15 UTC al 21 a les 15 UTC
Vent 21 kt del Nord
Visibilitat 10 km o més
Núvols disperses a una alçada de 4000 ft
Temporalment
l' 20 a les 15 UTC al 20 a les 20 UTC
Vent 25 kt del Nord amb ràfegues de 35 kt
Evolucionant progressivament
l' 20 a les 20 UTC al 20 a les 22 UTC
Vent 11 kt del Nord/Nord-Oest

TAF: GCLP 201400Z 2015/2115 36021KT 9999 SCT040 TX20/2114Z TN14/2106Z TEMPO 2015/2020 36025G35KT BECMG 2020/2022 34011KT

Observacions i pronòstics meteorològics de més de 4000 aeroports (METAR i TAF).

Les estacions disponibles són els punts grocs i vermells al mapa.

Posi el ratolí al punt desitjat per veure el nom de l'estació.

Feu clic per veure les observacions i els pronòstics meteorològics.

Per canviar el mapa: feu clic els botons verds amb una creu de color negre per apropar; al botó verd amb un guió per allunyar la imatge; o en les fletxes verdes per a mapes adjacents.


METAR-TAF: